ADDS METAR Data INFO
IDs: Format: Raw Decoded Include TAF

Data at: 0155 UTC 17 Oct 2017

KOWA 170135Z AUTO 17011G15KT 10SM CLR 13/03 A3002 RMK AO2
KOWA 170115Z AUTO 17010KT 10SM CLR 14/03 A3003 RMK AO2
KOWA 170055Z AUTO 17008KT 10SM CLR 14/03 A3003 RMK AO2
KOWA 170034Z AUTO 17008KT 10SM CLR 14/03 A3004 RMK AO2
KOWA 170015Z AUTO 17009KT 10SM CLR 15/03 A3004 RMK AO2
KOWA 162354Z AUTO 17007KT 10SM CLR 15/03 A3004 RMK AO2
KOWA 162334Z AUTO 17006KT 10SM CLR 15/03 A3004 RMK AO2
KOWA 162315Z AUTO 17006KT 10SM CLR 17/03 A3005 RMK AO2
KOWA 162254Z AUTO 18007KT 10SM CLR 18/03 A3005 RMK AO2
KOWA 162235Z AUTO 19008KT 10SM CLR 18/03 A3006 RMK AO2
KOWA 162215Z AUTO 20009G17KT 10SM CLR 19/03 A3007 RMK AO2
KOWA 162154Z AUTO 21010G18KT 10SM CLR 19/03 A3007 RMK AO2
KOWA 162135Z AUTO 21013G18KT 10SM CLR 19/03 A3008 RMK AO2
KOWA 162114Z AUTO 20011G17KT 10SM CLR 19/03 A3008 RMK AO2
KOWA 162054Z AUTO 20015G19KT 10SM CLR 19/03 A3009 RMK AO2
KOWA 162035Z AUTO 21012G18KT 10SM CLR 19/03 A3010 RMK AO2
KOWA 162014Z AUTO 22010G18KT 10SM CLR 19/02 A3010 RMK AO2
KOWA 161955Z AUTO 20012G18KT 10SM CLR 19/02 A3011 RMK AO2
KOWA 161935Z AUTO 22011G18KT 10SM CLR 19/02 A3013 RMK AO2
KOWA 161915Z AUTO 21013G21KT 10SM CLR 18/02 A3014 RMK AO2
KOWA 161855Z AUTO 22009G18KT 10SM CLR 18/02 A3016 RMK AO2
KOWA 161835Z AUTO 21009G18KT 10SM CLR 18/02 A3017 RMK AO2
KOWA 161814Z AUTO 22012G19KT 10SM CLR 17/02 A3019 RMK AO2
KOWA 161755Z AUTO 22013G16KT 10SM CLR 17/02 A3020 RMK AO2
KOWA 161735Z AUTO 22011G15KT 10SM CLR 16/02 A3022 RMK AO2
KOWA 161714Z AUTO 22009KT 10SM CLR 16/02 A3022 RMK AO2
KOWA 161655Z AUTO 22010G18KT 10SM CLR 15/02 A3023 RMK AO2
KOWA 161634Z AUTO 23011KT 10SM CLR 14/02 A3024 RMK AO2
KOWA 161614Z AUTO 22009KT 10SM CLR 13/03 A3024 RMK AO2
KOWA 161554Z AUTO 22004KT 10SM CLR 12/03 A3025 RMK AO2
KOWA 161534Z AUTO 23005KT 10SM CLR 11/03 A3025 RMK AO2
KOWA 161515Z AUTO 21005KT 10SM CLR 09/03 A3026 RMK AO2
KOWA 161454Z AUTO 22006KT 10SM CLR 08/03 A3026 RMK AO2
KOWA 161435Z AUTO 23005KT 10SM CLR 07/03 A3026 RMK AO2
KOWA 161414Z AUTO 20004KT 10SM CLR 06/03 A3025 RMK AO2
KOWA 161354Z AUTO 21003KT 10SM CLR 04/02 A3025 RMK AO2
KOWA 161334Z AUTO 18003KT 10SM CLR 04/02 A3025 RMK AO2
KOWA 161314Z AUTO 19004KT 10SM CLR 03/01 A3025 RMK AO2
KOWA 161254Z AUTO 00000KT 10SM CLR 02/01 A3025 RMK AO2
KOWA 161235Z AUTO 20004KT 10SM CLR 02/01 A3025 RMK AO2
KOWA 161214Z AUTO 19003KT 10SM CLR 02/01 A3025 RMK AO2
KOWA 161154Z AUTO 18004KT 10SM CLR 02/01 A3025 RMK AO2
KOWA 161134Z AUTO 20005KT 10SM CLR 02/01 A3025 RMK AO2
KOWA 161115Z AUTO 19003KT 10SM CLR 03/01 A3025 RMK AO2
KOWA 161054Z AUTO 19003KT 10SM CLR 02/01 A3025 RMK AO2
KOWA 161034Z AUTO 15004KT 10SM CLR 02/01 A3024 RMK AO2
KOWA 161014Z AUTO 00000KT 10SM CLR 02/01 A3024 RMK AO2
KOWA 160955Z AUTO 00000KT 10SM CLR 02/01 A3025 RMK AO2
KOWA 160934Z AUTO 00000KT 10SM CLR 03/02 A3024 RMK AO2
KOWA 160914Z AUTO 00000KT 10SM CLR 02/02 A3025 RMK AO2
KOWA 160854Z AUTO 19003KT 10SM CLR 03/02 A3024 RMK AO2
KOWA 160835Z AUTO 00000KT 10SM CLR 03/02 A3024 RMK AO2
KOWA 160814Z AUTO 00000KT 10SM CLR 02/01 A3024 RMK AO2
KOWA 160754Z AUTO 00000KT 10SM CLR 03/02 A3024 RMK AO2
KOWA 160734Z AUTO 00000KT 10SM CLR 03/02 A3024 RMK AO2
KOWA 160714Z AUTO 00000KT 10SM CLR 01/01 A3024 RMK AO2
KOWA 160654Z AUTO 00000KT 10SM CLR 02/01 A3023 RMK AO2
KOWA 160634Z AUTO 00000KT 10SM CLR 02/01 A3024 RMK AO2
KOWA 160615Z AUTO 00000KT 10SM CLR 02/01 A3023 RMK AO2
KOWA 160555Z AUTO 00000KT 10SM CLR 02/01 A3023 RMK AO2
KOWA 160535Z AUTO 00000KT 10SM CLR 04/02 A3023 RMK AO2
KOWA 160515Z AUTO 00000KT 10SM CLR 04/02 A3023 RMK AO2
KOWA 160454Z AUTO 00000KT 10SM CLR 04/02 A3023 RMK AO2
KOWA 160434Z AUTO 00000KT 10SM SCT090 05/02 A3023 RMK AO2
KOWA 160414Z AUTO 00000KT 10SM BKN090 06/02 A3023 RMK AO2
KOWA 160355Z AUTO 00000KT 10SM OVC090 05/03 A3023 RMK AO2
KOWA 160334Z AUTO 00000KT 10SM BKN090 06/02 A3023 RMK AO2
KOWA 160315Z AUTO 00000KT 10SM SCT050 SCT100 06/02 A3022 RMK AO2
KOWA 160254Z AUTO 22003KT 10SM SCT050 BKN100 07/02 A3021 RMK AO2
KOWA 160235Z AUTO 19003KT 10SM BKN100 08/02 A3021 RMK AO2
KOWA 160214Z AUTO 18004KT 10SM BKN100 08/02 A3021 RMK AO2
KOWA 160154Z AUTO 18003KT 10SM SCT090 08/02 A3021 RMK AO2
KOWA 160134Z AUTO 19005KT 10SM SCT060 SCT070 BKN080 09/01 A3021 RMK AO2
KOWA 160114Z AUTO 19004KT 10SM SCT060 OVC080 09/02 A3021 RMK AO2
KOWA 160054Z AUTO 19004KT 10SM SCT070 OVC090 09/02 A3021 RMK AO2
KOWA 160034Z AUTO 19003KT 10SM OVC090 09/02 A3021 RMK AO2
KOWA 160014Z AUTO 00000KT 10SM OVC090 09/02 A3021 RMK AO2
KOWA 152354Z AUTO 21003KT 10SM OVC090 09/02 A3020 RMK AO2
KOWA 152334Z AUTO 00000KT 10SM OVC090 10/01 A3020 RMK AO2
KOWA 152315Z AUTO 23004KT 10SM OVC090 10/01 A3020 RMK AO2
KOWA 152254Z AUTO 26005KT 10SM OVC100 11/01 A3020 RMK AO2
KOWA 152234Z AUTO 27008KT 10SM OVC100 11/01 A3020 RMK AO2
KOWA 152214Z AUTO 28008KT 10SM BKN100 11/01 A3020 RMK AO2
KOWA 152154Z AUTO 26010KT 10SM CLR 12/01 A3021 RMK AO2
KOWA 152134Z AUTO 28010G16KT 10SM CLR 11/01 A3021 RMK AO2
KOWA 152114Z AUTO 27013G19KT 10SM CLR 11/02 A3021 RMK AO2
KOWA 152054Z AUTO 27008KT 10SM CLR 12/03 A3020 RMK AO2
KOWA 152034Z AUTO 27007KT 10SM CLR 11/03 A3020 RMK AO2
KOWA 152015Z AUTO 30010G16KT 10SM CLR 11/02 A3021 RMK AO2
KOWA 151954Z AUTO 29012G18KT 10SM CLR 11/03 A3021 RMK AO2
KOWA 151935Z AUTO 29014G18KT 10SM CLR 11/02 A3021 RMK AO2
KOWA 151915Z AUTO 28013G16KT 10SM CLR 11/03 A3021 RMK AO2
KOWA 151854Z AUTO 28010G15KT 10SM CLR 09/04 A3022 RMK AO2
KOWA 151835Z AUTO 28011G17KT 10SM CLR 09/04 A3022 RMK AO2
KOWA 151814Z AUTO 28009KT 10SM SCT020 10/04 A3021 RMK AO2
KOWA 151754Z AUTO 29009G16KT 10SM BKN020 10/05 A3021 RMK AO2
KOWA 151735Z AUTO 29009KT 10SM SCT018 09/04 A3022 RMK AO2
KOWA 151714Z AUTO 27010KT 10SM BKN018 09/04 A3021 RMK AO2
KOWA 151654Z AUTO 30007G15KT 272V332 10SM BKN018 BKN023 09/04 A3020 RMK AO2
KOWA 151634Z AUTO 29012G16KT 10SM SCT018 09/05 A3021 RMK AO2
KOWA 151614Z AUTO 28010G16KT 10SM SCT018 08/05 A3020 RMK AO2
KOWA 151554Z AUTO 31011KT 10SM SCT016 BKN020 08/04 A3019 RMK AO2
KOWA 151534Z AUTO 30011KT 10SM OVC020 07/04 A3019 RMK AO2
KOWA 151514Z AUTO 32011KT 10SM BKN018 OVC025 07/04 A3018 RMK AO2
KOWA 151454Z AUTO 30008KT 10SM BKN016 OVC023 07/04 A3017 RMK AO2
KOWA 151434Z AUTO 31010G15KT 10SM OVC018 07/04 A3016 RMK AO2
KOWA 151415Z AUTO 30008KT 10SM OVC020 06/04 A3015 RMK AO2